Aérodrome :
LOGIN :

S'inscrire | Disclaimer

   EN    FR    IT 

 










Légende :    VFR   VFR Marginal   IFR   IFR Intensif   IFR Très Intensif
Visi : 
Plafond : 
>= 8 km
>= 3000ft
5 à 8 km
1000 à 3000 ft
1500m à 5 km
500 à 1000 ft
800 à 1500m
200 à 500 ft
< 800m
< 200 ft
Symboles :   Orages  Brouillard  Fortes neiges  Fortes précipitations  Vent > 20 kt
SIGMETs :   Divers  Orages  Givrage  Turbulence  Onde Orograph.  Cendres Volcan.






- Altitude de l'aérodrome : 291 ft
- Code IATA : ORY


LFPO - Paris-Orly

DERNIER METAR :
  • 091830Z 35004KT 320V020 9999 BKN012 01/M00 Q1006 TEMPO 4000 BR BKN004

METARs EXPIRÉS :
  • 091800Z 33005KT 310V020 9999 BKN014 01/M00 Q1006 NOSIG
  • 091734Z 34004KT 320V070 9999 BKN014 01/M00 Q1006 NOSIG
  • 091700Z 33005KT 9999 FEW016 00/M01 Q1006 NOSIG
  • 091630Z 34005KT 320V020 9999 FEW016 01/M01 Q1006 NOSIG
  • 091600Z 34005KT 9999 FEW016 02/M01 Q1006 NOSIG

TAF TAF LFPO
Valide du 09 à 18h jusqu'au 11 à 00h UTC


091700Z 0918/1024 36005KT 9999 BKN012
BECMG 0918/0921 BKN006
TEMPO 0919/1011 4000 BR BKN004
PROB40
TEMPO 0920/1009 1600 BR BKN002
PROB30
TEMPO 1003/1007 0800 FZFG VV///
BECMG 1011/1014 FEW014
BECMG 1018/1021 3000 BR BKN004
PROB30
TEMPO 1021/1024 0600 FZFG VV///
ATIS : +33 1 49 75 65 80



MET'MAP, la Météo Aéronautique d'un coup d'oeil ! - Copyright ORBIFLY Décembre 2007 - Disclaimer

ORBIFLY MET'MAP TEAM :

Programmation & Développement : Alexandra Zaïnal
Sur une idée originale de : Baudouin d'Aumeries
Soutien technique & logistique : Manuel Goepfert
Assistance : Marc-Olivier Méhu




SOURCES & CREDITS :

   NOAA